Time;durP1;ratioP1;P1;durP2;ratioP2;P2;SDS_P1;SDS_P2;PMS_P1;PMS_P2;Temp;Humidity;BMP_temperature;BMP_pressure;BME280_temperature;BME280_humidity;BME280_pressure;Samples;Min_cycle;Max_cycle;Signal;HPM_P1;HPM_P2
2022/10/17 00:00:27;;;;;;;14.63;5.25;;;12.10;99.90;;;;;;5157873;27;20096;-46
2022/10/17 00:02:56;;;;;;;14.55;4.60;;;12.10;99.90;;;;;;5157458;27;20559;-48
2022/10/17 00:05:23;;;;;;;14.65;4.78;;;12.00;99.90;;;;;;5139028;27;20437;-45
2022/10/17 00:07:49;;;;;;;10.50;4.88;;;12.10;99.90;;;;;;5153994;27;20129;-47
2022/10/17 00:10:15;;;;;;;9.10;4.40;;;12.10;99.90;;;;;;5154364;27;20107;-47
2022/10/17 00:12:41;;;;;;;12.68;4.55;;;12.10;99.90;;;;;;5157303;27;20050;-49
2022/10/17 00:15:08;;;;;;;10.13;5.38;;;12.10;99.90;;;;;;5125628;27;20053;-48
2022/10/17 00:17:33;;;;;;;13.13;4.93;;;12.10;99.90;;;;;;5139688;27;20694;-49
2022/10/17 00:19:59;;;;;;;15.77;5.30;;;12.10;99.90;;;;;;5157579;27;20144;-48
2022/10/17 00:22:26;;;;;;;10.18;5.30;;;12.10;99.90;;;;;;5156928;27;20094;-48
2022/10/17 00:24:52;;;;;;;14.35;5.05;;;12.10;99.90;;;;;;5139051;27;20146;-51
2022/10/17 00:27:17;;;;;;;10.77;5.13;;;12.10;99.90;;;;;;5157377;27;20042;-48
2022/10/17 00:29:48;;;;;;;11.85;5.72;;;12.20;99.90;;;;;;5157127;27;20094;-49
2022/10/17 00:32:14;;;;;;;10.98;5.80;;;12.20;99.90;;;;;;5146560;27;20047;-50
2022/10/17 00:34:40;;;;;;;9.23;5.20;;;12.20;99.90;;;;;;5156279;27;20042;-45
2022/10/17 00:37:06;;;;;;;14.75;5.80;;;12.20;99.90;;;;;;5157268;27;20116;-50
2022/10/17 00:39:32;;;;;;;11.65;5.63;;;12.20;99.90;;;;;;5157291;27;20048;-48
2022/10/17 00:41:57;;;;;;;17.42;5.45;;;12.20;99.90;;;;;;5156960;27;20371;-48
2022/10/17 00:44:29;;;;;;;8.90;5.38;;;12.20;99.90;;;;;;5157410;27;20054;-46
2022/10/17 00:46:56;;;;;;;11.88;5.88;;;12.20;99.90;;;;;;5157221;27;20050;-48
2022/10/17 00:49:24;;;;;;;8.88;5.40;;;12.10;99.90;;;;;;5157071;27;20042;-48
2022/10/17 00:51:53;;;;;;;14.13;6.53;;;12.20;99.90;;;;;;5156473;27;20496;-47
2022/10/17 00:54:23;;;;;;;13.75;5.68;;;12.20;99.90;;;;;;5156786;27;20161;-49
2022/10/17 00:56:50;;;;;;;10.95;6.13;;;12.20;99.90;;;;;;5143734;27;20046;-46
2022/10/17 00:59:18;;;;;;;11.75;5.45;;;12.20;99.90;;;;;;5155520;27;20057;-48
2022/10/17 01:01:51;;;;;;;12.52;6.60;;;12.20;99.90;;;;;;5156987;27;20060;-48
2022/10/17 01:04:17;;;;;;;12.15;5.65;;;12.30;99.90;;;;;;5156677;27;20042;-50
2022/10/17 01:06:43;;;;;;;11.15;6.05;;;12.30;99.90;;;;;;5142353;27;20080;-50
2022/10/17 01:09:09;;;;;;;13.93;5.40;;;12.30;99.90;;;;;;5149530;27;20042;-49
2022/10/17 01:11:42;;;;;;;12.80;6.22;;;12.30;99.90;;;;;;5155604;27;20951;-48
2022/10/17 01:14:10;;;;;;;;;;;12.40;99.90;;;;;;5157279;27;20121;-44
2022/10/17 01:16:57;;;;;;;10.77;5.95;;;12.40;99.90;;;;;;5156869;27;19966;-49
2022/10/17 01:19:37;;;;;;;10.80;6.13;;;12.40;99.90;;;;;;5137325;27;20480;-47
2022/10/17 01:22:20;;;;;;;12.77;6.88;;;12.50;99.90;;;;;;5156734;27;20130;-47
2022/10/17 01:24:55;;;;;;;16.25;7.10;;;12.40;99.90;;;;;;5157060;27;20038;-46
2022/10/17 01:27:47;;;;;;;12.40;7.32;;;12.40;99.90;;;;;;5151481;27;20054;-47
2022/10/17 01:30:22;;;;;;;13.25;6.82;;;12.40;99.90;;;;;;5143463;27;20046;-49
2022/10/17 01:33:05;;;;;;;9.02;6.65;;;12.40;99.90;;;;;;5153879;27;20042;-51
2022/10/17 01:35:52;;;;;;;12.60;6.82;;;12.40;99.90;;;;;;5154693;27;20476;-50
2022/10/17 01:38:23;;;;;;;11.85;6.78;;;12.30;99.90;;;;;;5137631;27;20054;-50
2022/10/17 01:41:00;;;;;;;15.02;7.20;;;12.30;99.90;;;;;;5142363;27;20567;-46
2022/10/17 01:43:43;;;;;;;10.05;6.68;;;12.30;99.90;;;;;;5146846;27;20191;-46
2022/10/17 01:46:27;;;;;;;10.15;6.90;;;12.20;99.90;;;;;;5148378;27;20107;-50
2022/10/17 01:48:53;;;;;;;;;;;12.20;99.90;;;;;;5132130;27;20495;-48
2022/10/17 01:51:26;;;;;;;12.10;7.18;;;12.20;99.90;;;;;;5155918;27;19923;-47
2022/10/17 01:53:59;;;;;;;11.75;8.07;;;12.20;99.90;;;;;;5155244;27;20042;-48
2022/10/17 01:56:27;;;;;;;14.32;7.63;;;12.20;99.90;;;;;;5155240;27;20118;-51
2022/10/17 01:58:57;;;;;;;12.18;8.07;;;12.20;99.90;;;;;;5156119;27;20103;-48
2022/10/17 02:01:24;;;;;;;11.85;8.13;;;12.20;99.90;;;;;;5143268;27;20514;-48
2022/10/17 02:03:51;;;;;;;12.73;7.63;;;12.20;99.90;;;;;;5151759;27;20084;-47
2022/10/17 02:06:17;;;;;;;14.20;8.35;;;12.20;99.90;;;;;;5153137;27;20161;-49
2022/10/17 02:08:45;;;;;;;12.52;7.25;;;12.20;99.90;;;;;;5147661;27;20038;-49
2022/10/17 02:11:25;;;;;;;11.45;7.53;;;12.20;99.90;;;;;;5148177;27;20038;-49
2022/10/17 02:14:15;;;;;;;15.27;7.85;;;12.20;99.90;;;;;;5155758;27;20149;-49
2022/10/17 02:17:02;;;;;;;13.75;8.15;;;12.20;99.90;;;;;;5138359;27;20416;-51
2022/10/17 02:19:31;;;;;;;13.93;8.57;;;12.20;99.90;;;;;;5148484;27;20157;-50
2022/10/17 02:21:59;;;;;;;14.63;8.88;;;12.20;99.90;;;;;;5154643;27;20042;-49
2022/10/17 02:24:47;;;;;;;15.75;8.77;;;12.20;99.90;;;;;;5155827;27;20046;-51
2022/10/17 02:27:39;;;;;;;13.07;9.25;;;12.20;99.90;;;;;;5155310;27;20050;-48
2022/10/17 02:30:08;;;;;;;16.67;9.32;;;12.20;99.90;;;;;;5125717;27;20065;-47
2022/10/17 02:32:50;;;;;;;12.52;9.23;;;12.20;99.90;;;;;;5159452;27;20098;-49
2022/10/17 02:35:19;;;;;;;15.07;9.68;;;12.20;99.90;;;;;;5159726;27;20515;-48
2022/10/17 02:37:46;;;;;;;13.05;9.73;;;12.20;99.90;;;;;;5158832;27;20061;-49
2022/10/17 02:40:15;;;;;;;20.10;10.98;;;12.10;99.90;;;;;;5159167;27;20527;-49
2022/10/17 02:42:44;;;;;;;14.55;11.05;;;12.20;99.90;;;;;;5138935;27;20050;-51
2022/10/17 02:45:12;;;;;;;18.90;11.30;;;12.20;99.90;;;;;;5157762;27;20146;-47
2022/10/17 02:47:46;;;;;;;14.95;12.52;;;12.20;99.90;;;;;;5158240;27;20034;-46
2022/10/17 02:50:12;;;;;;;19.35;13.60;;;12.20;99.90;;;;;;5159449;27;20380;-47
2022/10/17 02:52:55;;;;;;;17.60;11.85;;;12.20;99.90;;;;;;5157406;27;20045;-50
2022/10/17 02:55:47;;;;;;;17.42;14.88;;;12.30;99.90;;;;;;5160264;27;20303;-50
2022/10/17 02:58:19;;;;;;;20.00;15.60;;;12.30;99.90;;;;;;5158788;27;20042;-48
2022/10/17 03:00:45;;;;;;;17.30;14.03;;;12.30;99.90;;;;;;5145099;27;20109;-49
2022/10/17 03:03:28;;;;;;;21.38;14.40;;;12.30;99.90;;;;;;5138982;27;20509;-50
2022/10/17 03:05:54;;;;;;;20.23;16.67;;;12.30;99.90;;;;;;5145616;27;20054;-50
2022/10/17 03:08:21;;;;;;;18.30;16.38;;;12.30;99.90;;;;;;5145585;27;20515;-47
2022/10/17 03:10:47;;;;;;;20.30;17.02;;;12.30;99.90;;;;;;5152179;27;20042;-51
2022/10/17 03:13:13;;;;;;;19.40;17.27;;;12.40;99.90;;;;;;5151653;27;20053;-50
2022/10/17 03:15:39;;;;;;;21.92;19.23;;;12.40;99.90;;;;;;5159341;27;20050;-49
2022/10/17 03:18:04;;;;;;;22.60;17.88;;;12.50;99.90;;;;;;5158680;27;20057;-48
2022/10/17 03:20:30;;;;;;;20.83;18.67;;;12.40;99.90;;;;;;5158539;27;20125;-49
2022/10/17 03:22:56;;;;;;;21.23;19.00;;;12.40;99.90;;;;;;5156163;27;20724;-49
2022/10/17 03:25:22;;;;;;;21.58;19.27;;;12.50;99.90;;;;;;5158002;27;20570;-52
2022/10/17 03:27:47;;;;;;;22.00;19.00;;;12.50;99.90;;;;;;5157015;27;20041;-50
2022/10/17 03:30:13;;;;;;;22.00;19.85;;;12.50;99.90;;;;;;5145328;27;20069;-49
2022/10/17 03:32:38;;;;;;;22.15;19.80;;;12.50;99.90;;;;;;5144775;27;20522;-48
2022/10/17 03:35:04;;;;;;;22.38;20.08;;;12.50;99.90;;;;;;5158799;27;20050;-50
2022/10/17 03:37:30;;;;;;;24.77;19.95;;;12.50;99.90;;;;;;5144538;27;20157;-48
2022/10/17 03:39:56;;;;;;;25.35;20.77;;;12.50;99.90;;;;;;5150565;27;20180;-47
2022/10/17 03:42:22;;;;;;;23.90;21.60;;;12.50;99.90;;;;;;5151954;27;20085;-49
2022/10/17 03:44:47;;;;;;;22.05;19.88;;;12.50;99.90;;;;;;5155437;27;20038;-47
2022/10/17 03:47:13;;;;;;;25.60;21.85;;;12.50;99.90;;;;;;5136979;27;20045;-49
2022/10/17 03:49:39;;;;;;;23.75;21.05;;;12.60;99.90;;;;;;5146017;27;20046;-49
2022/10/17 03:52:04;;;;;;;23.33;21.10;;;12.60;99.90;;;;;;5157623;27;20444;-48
2022/10/17 03:54:30;;;;;;;23.27;20.85;;;12.60;99.90;;;;;;5136671;27;20073;-50
2022/10/17 03:56:55;;;;;;;25.92;23.02;;;12.60;99.90;;;;;;5154623;27;20042;-49
2022/10/17 03:59:21;;;;;;;26.98;21.83;;;12.70;99.90;;;;;;5151351;27;20601;-52
2022/10/17 04:01:47;;;;;;;26.75;22.05;;;12.70;99.90;;;;;;5150597;27;20083;-52
2022/10/17 04:04:12;;;;;;;24.23;21.67;;;12.70;99.90;;;;;;5137533;27;20050;-49
2022/10/17 04:06:38;;;;;;;24.55;22.13;;;12.70;99.90;;;;;;5148695;27;20042;-49
2022/10/17 04:09:05;;;;;;;26.77;23.27;;;12.80;99.90;;;;;;5151270;27;20745;-49
2022/10/17 04:11:31;;;;;;;27.10;23.17;;;12.80;99.90;;;;;;5157327;27;20077;-49
2022/10/17 04:13:58;;;;;;;24.60;21.95;;;12.80;99.90;;;;;;5158070;27;20133;-52
2022/10/17 04:16:24;;;;;;;25.35;22.65;;;12.80;99.90;;;;;;5126348;27;20049;-51
2022/10/17 04:18:54;;;;;;;24.15;21.83;;;12.90;99.90;;;;;;5158698;27;20054;-49
2022/10/17 04:21:21;;;;;;;28.20;22.50;;;12.90;99.90;;;;;;5119432;27;20411;-49
2022/10/17 04:23:47;;;;;;;27.33;22.30;;;12.90;99.90;;;;;;5157987;27;20042;-51
2022/10/17 04:26:12;;;;;;;24.85;22.25;;;12.90;99.90;;;;;;5156819;27;20643;-45
2022/10/17 04:28:38;;;;;;;26.42;23.73;;;13.00;99.90;;;;;;5155547;27;20088;-49
2022/10/17 04:31:06;;;;;;;24.92;22.33;;;13.00;99.90;;;;;;5157340;27;20038;-52
2022/10/17 04:33:33;;;;;;;27.42;22.40;;;12.90;99.90;;;;;;5157893;27;20042;-50
2022/10/17 04:36:04;;;;;;;29.48;24.02;;;13.10;99.90;;;;;;5154809;27;20082;-50
2022/10/17 04:38:31;;;;;;;24.88;21.67;;;13.10;99.90;;;;;;5146547;27;20507;-47
2022/10/17 04:41:01;;;;;;;24.45;22.17;;;13.20;99.90;;;;;;5135380;27;20747;-50
2022/10/17 04:43:26;;;;;;;24.80;22.30;;;13.20;99.90;;;;;;5147230;27;20073;-49
2022/10/17 04:45:52;;;;;;;28.05;23.15;;;13.20;99.90;;;;;;5124449;27;20495;-49
2022/10/17 04:48:18;;;;;;;29.52;23.23;;;13.20;99.90;;;;;;5156900;27;20122;-45
2022/10/17 04:51:04;;;;;;;24.90;22.38;;;13.30;99.90;;;;;;5156479;27;20125;-45
2022/10/17 04:53:31;;;;;;;25.55;21.83;;;13.40;99.90;;;;;;5137681;27;20042;-52
2022/10/17 04:55:57;;;;;;;24.88;22.02;;;13.50;99.90;;;;;;5157560;27;20046;-49
2022/10/17 04:58:23;;;;;;;26.60;23.17;;;13.60;99.90;;;;;;5158235;27;20045;-45
2022/10/17 05:00:49;;;;;;;24.65;21.40;;;13.60;99.90;;;;;;5156820;27;20044;-46
2022/10/17 05:03:15;;;;;;;24.95;21.10;;;13.60;99.90;;;;;;5157180;27;20467;-47
2022/10/17 05:05:41;;;;;;;23.95;21.48;;;13.70;99.90;;;;;;5157129;27;20046;-52
2022/10/17 05:08:08;;;;;;;25.23;21.35;;;13.80;99.90;;;;;;5151080;27;20053;-50
2022/10/17 05:10:39;;;;;;;24.42;20.75;;;13.80;99.90;;;;;;5156161;27;20054;-46
2022/10/17 05:13:05;;;;;;;25.45;21.20;;;13.80;99.90;;;;;;5157441;27;20527;-45
2022/10/17 05:15:30;;;;;;;24.90;21.90;;;13.80;99.90;;;;;;5157208;27;20479;-50
2022/10/17 05:17:57;;;;;;;22.02;19.92;;;13.80;99.90;;;;;;5143208;27;20093;-48
2022/10/17 05:20:23;;;;;;;23.80;21.30;;;13.80;99.90;;;;;;5152154;27;20051;-50
2022/10/17 05:22:49;;;;;;;22.77;20.50;;;13.80;99.90;;;;;;5156194;27;20475;-49
2022/10/17 05:25:14;;;;;;;23.38;20.40;;;13.90;99.90;;;;;;5150516;27;20448;-45
2022/10/17 05:27:40;;;;;;;22.55;20.25;;;14.10;99.90;;;;;;5150303;27;20038;-50
2022/10/17 05:30:06;;;;;;;27.05;22.80;;;14.00;99.90;;;;;;5157942;27;20038;-46
2022/10/17 05:32:32;;;;;;;23.02;20.42;;;14.00;99.90;;;;;;5156535;27;20054;-49
2022/10/17 05:34:58;;;;;;;23.55;21.30;;;14.10;99.90;;;;;;5156936;27;20174;-47
2022/10/17 05:37:23;;;;;;;22.52;20.30;;;14.00;99.90;;;;;;5155933;27;20527;-47
2022/10/17 05:39:49;;;;;;;25.17;21.73;;;14.10;99.90;;;;;;5138373;27;20457;-45
2022/10/17 05:42:15;;;;;;;26.15;20.70;;;14.20;99.90;;;;;;5156031;27;20515;-48
2022/10/17 05:44:40;;;;;;;24.27;21.70;;;14.20;99.90;;;;;;5149317;27;20054;-52
2022/10/17 05:47:07;;;;;;;23.60;20.65;;;14.20;99.90;;;;;;5149366;27;20078;-47
2022/10/17 05:49:33;;;;;;;24.15;20.42;;;14.10;99.90;;;;;;5137706;27;20081;-48
2022/10/17 05:51:59;;;;;;;22.50;20.25;;;14.10;99.90;;;;;;5155196;27;20070;-46
2022/10/17 05:54:25;;;;;;;23.02;20.55;;;14.20;99.90;;;;;;5155982;27;20046;-45
2022/10/17 05:56:51;;;;;;;23.77;21.27;;;14.10;99.90;;;;;;5138263;27;20106;-50
2022/10/17 05:59:17;;;;;;;24.55;22.00;;;14.20;99.90;;;;;;5156542;27;20142;-48
2022/10/17 06:01:43;;;;;;;26.13;20.67;;;14.10;99.90;;;;;;5156207;27;20042;-45
2022/10/17 06:04:08;;;;;;;22.77;20.08;;;14.20;99.90;;;;;;5138855;27;20492;-50
2022/10/17 06:06:36;;;;;;;22.83;20.52;;;14.20;99.90;;;;;;5159904;27;20518;-48
2022/10/17 06:09:03;;;;;;;22.05;18.60;;;14.30;99.90;;;;;;5153524;27;20150;-48
2022/10/17 06:11:28;;;;;;;19.55;17.55;;;14.30;99.90;;;;;;5159857;27;20046;-49
2022/10/17 06:13:54;;;;;;;20.67;17.88;;;14.40;99.90;;;;;;5127679;27;20052;-49
2022/10/17 06:16:20;;;;;;;19.85;17.73;;;14.40;99.90;;;;;;5159104;27;20045;-48
2022/10/17 06:18:45;;;;;;;19.73;17.25;;;14.40;99.90;;;;;;5160612;27;20046;-47
2022/10/17 06:21:13;;;;;;;21.48;16.75;;;14.50;99.90;;;;;;5159238;27;20182;-48
2022/10/17 06:23:39;;;;;;;18.98;15.88;;;14.60;99.90;;;;;;5160786;27;20137;-47
2022/10/17 06:26:05;;;;;;;18.17;16.23;;;14.60;99.90;;;;;;5140895;27;20554;-47
2022/10/17 06:28:32;;;;;;;17.95;16.13;;;14.70;99.90;;;;;;5133912;27;20054;-48
2022/10/17 06:30:57;;;;;;;21.60;15.90;;;14.70;99.90;;;;;;5153194;27;20057;-48
2022/10/17 06:33:23;;;;;;;19.17;16.20;;;14.70;99.90;;;;;;5160168;27;20050;-49
2022/10/17 06:35:55;;;;;;;17.50;15.70;;;14.80;99.90;;;;;;5159406;27;20046;-46
2022/10/17 06:38:22;;;;;;;17.33;15.60;;;14.80;99.90;;;;;;5159828;27;20055;-50
2022/10/17 06:40:47;;;;;;;16.48;14.77;;;14.80;99.90;;;;;;5159564;27;20050;-49
2022/10/17 06:43:13;;;;;;;17.63;15.25;;;14.90;99.90;;;;;;5160002;27;20073;-47
2022/10/17 06:45:39;;;;;;;17.25;15.40;;;14.90;99.90;;;;;;5140708;27;20074;-47
2022/10/17 06:48:06;;;;;;;17.75;15.95;;;14.80;99.90;;;;;;5160064;27;20130;-48
2022/10/17 06:50:31;;;;;;;22.08;15.52;;;14.90;99.90;;;;;;5159543;27;20559;-49
2022/10/17 06:52:57;;;;;;;17.25;15.60;;;14.80;99.90;;;;;;5157861;27;20140;-50
2022/10/17 06:55:23;;;;;;;17.55;15.00;;;14.90;99.90;;;;;;5159551;27;20048;-48
2022/10/17 06:57:50;;;;;;;20.70;15.45;;;15.00;99.90;;;;;;5147322;27;20255;-44
2022/10/17 07:00:16;;;;;;;16.00;14.07;;;15.00;99.90;;;;;;5159815;27;20557;-47
2022/10/17 07:02:42;;;;;;;18.73;13.80;;;15.10;99.90;;;;;;5159160;27;20097;-46
2022/10/17 07:05:08;;;;;;;15.02;13.60;;;15.10;99.90;;;;;;5159524;27;20057;-45
2022/10/17 07:07:34;;;;;;;16.33;13.55;;;15.20;99.90;;;;;;5157154;27;20081;-50
2022/10/17 07:10:00;;;;;;;16.10;13.82;;;15.20;99.90;;;;;;5134118;27;20160;-45
2022/10/17 07:12:26;;;;;;;15.73;14.18;;;15.30;99.90;;;;;;5140325;27;20046;-47
2022/10/17 07:14:51;;;;;;;17.98;14.63;;;15.40;99.90;;;;;;5145583;27;20535;-52
2022/10/17 07:17:17;;;;;;;15.55;13.52;;;15.40;99.90;;;;;;5142081;27;20038;-53
2022/10/17 07:19:43;;;;;;;16.80;13.75;;;15.50;99.90;;;;;;5149174;27;20563;-49
2022/10/17 07:22:09;;;;;;;15.77;13.20;;;15.50;99.90;;;;;;5158043;27;20137;-50
2022/10/17 07:24:35;;;;;;;14.63;13.20;;;15.60;99.90;;;;;;5149144;27;20058;-47
2022/10/17 07:27:01;;;;;;;15.75;14.05;;;15.60;99.90;;;;;;5144774;27;20086;-45
2022/10/17 07:29:27;;;;;;;14.85;13.27;;;15.70;99.90;;;;;;5150401;27;20121;-51
2022/10/17 07:31:52;;;;;;;16.90;14.27;;;15.70;99.90;;;;;;5138880;27;20042;-48
2022/10/17 07:34:18;;;;;;;15.88;13.65;;;15.70;99.90;;;;;;5158067;27;20073;-45
2022/10/17 07:36:44;;;;;;;15.70;14.05;;;15.70;99.90;;;;;;5158952;27;20057;-48
2022/10/17 07:39:10;;;;;;;15.68;14.15;;;15.60;99.90;;;;;;5159118;27;20225;-48
2022/10/17 07:41:36;;;;;;;15.90;14.27;;;15.60;99.90;;;;;;5158531;27;20050;-48
2022/10/17 07:44:02;;;;;;;17.67;14.20;;;15.60;99.90;;;;;;5137379;27;20047;-50
2022/10/17 07:46:27;;;;;;;15.35;13.82;;;15.70;99.90;;;;;;5115340;27;20086;-50
2022/10/17 07:48:53;;;;;;;15.85;13.20;;;15.70;99.90;;;;;;5151441;27;20035;-44
2022/10/17 07:51:20;;;;;;;15.52;13.93;;;15.80;99.90;;;;;;5139071;27;20054;-46
2022/10/17 07:53:46;;;;;;;16.20;14.05;;;15.80;99.90;;;;;;5139247;27;20035;-48
2022/10/17 07:56:12;;;;;;;18.00;14.43;;;15.90;99.90;;;;;;5137341;27;20045;-50
2022/10/17 07:58:38;;;;;;;15.50;14.00;;;15.90;99.90;;;;;;5132552;27;20467;-47
2022/10/17 08:01:07;;;;;;;17.45;13.68;;;15.90;99.90;;;;;;5135833;27;20043;-50
2022/10/17 08:03:33;;;;;;;15.77;14.15;;;15.80;99.90;;;;;;5132960;27;20042;-51
2022/10/17 08:06:02;;;;;;;15.48;14.05;;;15.80;99.90;;;;;;5126018;27;20053;-45
2022/10/17 08:08:29;;;;;;;16.05;14.32;;;15.80;99.90;;;;;;5151994;27;20042;-50
2022/10/17 08:11:00;;;;;;;17.60;14.20;;;15.80;99.90;;;;;;5157811;27;20466;-48
2022/10/17 08:13:25;;;;;;;16.13;14.52;;;15.90;99.90;;;;;;5157628;27;20093;-48
2022/10/17 08:15:51;;;;;;;16.33;14.73;;;15.80;99.90;;;;;;5156443;27;20157;-46
2022/10/17 08:18:17;;;;;;;16.25;14.63;;;15.90;99.90;;;;;;5134668;27;20053;-50
2022/10/17 08:20:43;;;;;;;18.13;15.63;;;15.90;99.90;;;;;;5157430;27;20046;-48
2022/10/17 08:23:09;;;;;;;16.45;14.75;;;15.90;99.90;;;;;;5121417;27;20046;-50
2022/10/17 08:25:38;;;;;;;19.60;14.55;;;15.90;99.90;;;;;;5153677;27;20042;-51
2022/10/17 08:28:04;;;;;;;19.25;14.82;;;16.00;99.90;;;;;;5147708;27;20575;-47
2022/10/17 08:30:30;;;;;;;16.30;14.43;;;16.00;99.90;;;;;;5147523;27;20579;-44
2022/10/17 08:32:56;;;;;;;17.42;14.93;;;16.00;99.90;;;;;;5137660;27;20047;-47
2022/10/17 08:35:22;;;;;;;15.20;13.55;;;16.00;99.90;;;;;;5136515;27;20496;-51
2022/10/17 08:37:48;;;;;;;15.13;13.63;;;16.00;99.90;;;;;;5157416;27;20550;-46
2022/10/17 08:40:20;;;;;;;19.77;14.00;;;16.00;99.90;;;;;;5157265;27;20038;-47
2022/10/17 08:42:51;;;;;;;16.25;14.57;;;16.00;99.90;;;;;;5129281;27;20106;-49
2022/10/17 08:45:33;;;;;;;17.00;14.27;;;16.10;99.90;;;;;;5140358;27;20484;-52
2022/10/17 08:48:01;;;;;;;14.10;12.57;;;16.10;99.90;;;;;;5136898;27;20046;-48
2022/10/17 08:50:42;;;;;;;15.65;13.10;;;16.10;99.90;;;;;;5137093;27;20046;-52
2022/10/17 08:53:42;;;;;;;17.00;14.27;;;16.10;99.90;;;;;;5142818;27;20039;-53
2022/10/17 08:56:20;;;;;;;15.32;13.77;;;16.00;99.90;;;;;;5144241;27;20080;-50
2022/10/17 08:58:46;;;;;;;18.80;16.38;;;16.00;99.90;;;;;;5154280;27;20046;-50
2022/10/17 09:01:38;;;;;;;16.48;14.63;;;16.00;99.90;;;;;;5153145;27;20050;-50
2022/10/17 09:04:42;;;;;;;16.75;15.02;;;16.10;99.90;;;;;;5147602;27;20113;-52
2022/10/17 09:07:29;;;;;;;20.17;16.25;;;16.00;99.90;;;;;;5041774;28;20650;-50
2022/10/17 09:10:17;;;;;;;19.10;16.25;;;16.00;99.90;;;;;;5048675;28;20175;-47
2022/10/17 09:13:06;;;;;;;19.17;16.98;;;16.10;99.90;;;;;;5045405;28;20053;-52
2022/10/17 09:16:02;;;;;;;21.05;17.33;;;16.00;99.90;;;;;;5046790;28;20522;-51
2022/10/17 09:18:36;;;;;;;19.05;17.10;;;16.00;99.90;;;;;;5050378;28;20072;-49
2022/10/17 09:21:35;;;;;;;19.92;16.70;;;16.00;99.90;;;;;;5047663;28;20071;-52
2022/10/17 09:24:09;;;;;;;20.95;18.90;;;16.00;99.90;;;;;;5017278;28;20060;-51
2022/10/17 09:26:35;;;;;;;21.95;19.52;;;16.00;99.90;;;;;;5029313;28;20044;-49
2022/10/17 09:29:01;;;;;;;23.10;19.90;;;16.00;99.90;;;;;;5031459;28;20562;-48
2022/10/17 09:31:37;;;;;;;29.75;26.80;;;16.00;99.90;;;;;;5045514;28;20073;-52
2022/10/17 09:34:02;;;;;;;23.10;19.30;;;16.00;99.90;;;;;;5046636;28;20052;-48
2022/10/17 09:36:31;;;;;;;22.83;19.05;;;15.90;99.90;;;;;;5040128;28;20162;-49
2022/10/17 09:39:00;;;;;;;21.88;18.05;;;16.00;99.90;;;;;;5048049;28;20041;-50
2022/10/17 09:41:29;;;;;;;19.33;17.42;;;16.10;99.90;;;;;;5047550;28;20048;-50
2022/10/17 09:43:56;;;;;;;22.08;19.83;;;16.00;99.90;;;;;;5096668;27;20564;-48
2022/10/17 09:46:22;;;;;;;22.63;18.17;;;16.00;99.90;;;;;;5136343;27;20062;-51
2022/10/17 09:48:58;;;;;;;23.50;17.10;;;16.00;99.90;;;;;;5151523;27;20038;-49
2022/10/17 09:51:24;;;;;;;21.63;17.33;;;15.90;99.90;;;;;;5125141;27;20038;-52
2022/10/17 09:53:58;;;;;;;22.83;17.23;;;15.90;99.90;;;;;;5137081;27;20409;-52
2022/10/17 09:56:24;;;;;;;22.80;18.60;;;16.00;99.90;;;;;;5155690;27;20054;-52
2022/10/17 09:58:53;;;;;;;27.88;18.52;;;16.00;99.90;;;;;;5145706;27;20047;-54
2022/10/17 10:01:30;;;;;;;24.70;19.70;;;15.90;99.90;;;;;;5138363;27;20050;-50
2022/10/17 10:04:11;;;;;;;28.52;19.77;;;15.90;99.90;;;;;;5146995;27;20118;-50
2022/10/17 10:06:37;;;;;;;19.48;16.88;;;15.90;99.90;;;;;;5155510;27;20050;-53
2022/10/17 10:09:05;;;;;;;21.77;19.40;;;15.90;99.90;;;;;;5156173;27;20081;-51
2022/10/17 10:11:51;;;;;;;19.58;17.60;;;15.90;99.90;;;;;;5153357;27;20046;-48
2022/10/17 10:14:33;;;;;;;32.92;29.73;;;15.90;99.90;;;;;;5135653;27;20602;-48
2022/10/17 10:17:01;;;;;;;38.67;34.75;;;15.90;99.90;;;;;;5143907;27;20051;-51
2022/10/17 10:19:34;;;;;;;27.88;25.17;;;15.90;99.90;;;;;;5114498;27;20123;-49
2022/10/17 10:22:13;;;;;;;28.08;25.08;;;16.00;99.90;;;;;;5152026;27;20053;-51
2022/10/17 10:24:39;;;;;;;22.63;17.77;;;16.00;99.90;;;;;;5125856;27;20054;-52
2022/10/17 10:27:05;;;;;;;18.70;16.45;;;16.00;99.90;;;;;;5155296;27;20507;-48
2022/10/17 10:29:38;;;;;;;24.02;17.42;;;16.00;99.90;;;;;;5156985;27;20050;-51
2022/10/17 10:32:19;;;;;;;20.38;18.05;;;16.10;99.90;;;;;;5155598;27;20134;-47
2022/10/17 10:34:59;;;;;;;20.20;17.20;;;16.00;99.90;;;;;;5137966;27;20078;-49
2022/10/17 10:37:36;;;;;;;19.83;17.73;;;16.10;99.90;;;;;;5136433;27;20136;-50
2022/10/17 10:40:05;;;;;;;22.95;17.58;;;16.00;99.90;;;;;;5137656;27;20198;-50
2022/10/17 10:42:35;;;;;;;22.08;17.15;;;16.00;99.90;;;;;;5139706;27;20042;-54
2022/10/17 10:45:13;;;;;;;21.85;17.90;;;16.10;99.90;;;;;;5135763;27;20095;-51
2022/10/17 10:47:59;;;;;;;22.67;18.30;;;16.20;99.90;;;;;;5126948;27;20519;-50
2022/10/17 10:50:33;;;;;;;19.75;17.60;;;16.10;99.90;;;;;;5148328;27;20042;-53
2022/10/17 10:53:33;;;;;;;22.60;18.67;;;16.20;99.90;;;;;;5142054;27;20042;-51
2022/10/17 10:56:10;;;;;;;20.10;16.05;;;16.20;99.90;;;;;;5139929;27;20046;-49
2022/10/17 10:58:45;;;;;;;22.88;17.30;;;16.30;99.90;;;;;;5156579;27;20117;-51
2022/10/17 11:01:37;;;;;;;18.80;16.58;;;16.20;99.90;;;;;;5153693;27;20236;-49
2022/10/17 11:04:34;;;;;;;23.77;18.95;;;16.20;99.90;;;;;;5051624;28;20060;-50
2022/10/17 11:07:09;;;;;;;20.88;18.48;;;16.20;99.90;;;;;;5011699;28;20096;-54
2022/10/17 11:09:49;;;;;;;20.52;16.33;;;16.20;99.90;;;;;;5010791;28;20123;-49
2022/10/17 11:12:23;;;;;;;21.48;15.95;;;16.30;99.90;;;;;;5011823;28;20050;-47
2022/10/17 11:15:20;;;;;;;18.15;16.35;;;16.30;99.90;;;;;;5009576;28;20063;-51
2022/10/17 11:18:02;;;;;;;21.60;19.30;;;16.40;99.90;;;;;;5012411;28;20138;-52
2022/10/17 11:20:41;;;;;;;32.13;25.05;;;16.30;99.90;;;;;;5012980;28;20161;-52
2022/10/17 11:23:22;;;;;;;22.70;20.27;;;16.40;99.90;;;;;;5022704;28;20044;-52
2022/10/17 11:25:51;;;;;;;22.48;16.73;;;16.30;99.90;;;;;;5003841;28;20053;-48
2022/10/17 11:28:19;;;;;;;24.02;18.58;;;16.40;99.90;;;;;;5000556;28;20058;-53
2022/10/17 11:30:56;;;;;;;26.30;22.70;;;16.50;99.90;;;;;;5004857;28;20065;-49
2022/10/17 11:33:45;;;;;;;15.65;13.73;;;16.50;99.90;;;;;;4991354;28;20538;-51
2022/10/17 11:36:12;;;;;;;26.58;23.77;;;16.40;99.90;;;;;;5009878;28;20049;-50
2022/10/17 11:39:13;;;;;;;19.25;16.05;;;16.50;99.90;;;;;;4996157;28;20490;-49
2022/10/17 11:41:44;;;;;;;19.85;14.38;;;16.60;99.90;;;;;;5027071;28;20075;-50
2022/10/17 11:44:26;;;;;;;13.25;11.88;;;16.50;99.90;;;;;;5118303;27;20058;-49
2022/10/17 11:47:05;;;;;;;16.02;13.82;;;16.50;99.90;;;;;;5157266;27;20038;-51
2022/10/17 11:49:37;;;;;;;16.80;14.23;;;16.50;99.90;;;;;;5159003;27;20042;-51
2022/10/17 11:52:09;;;;;;;24.80;22.15;;;16.50;99.90;;;;;;5139644;27;20038;-50
2022/10/17 11:54:41;;;;;;;37.28;33.30;;;16.70;99.90;;;;;;5159155;27;20050;-49
2022/10/17 11:57:43;;;;;;;24.20;21.75;;;16.70;99.90;;;;;;5157901;27;20045;-51
2022/10/17 12:00:21;;;;;;;15.35;13.15;;;16.80;99.90;;;;;;5155111;27;20050;-54
2022/10/17 12:03:11;;;;;;;16.85;13.35;;;16.90;99.90;;;;;;5148946;27;20042;-51
2022/10/17 12:05:56;;;;;;;12.70;11.40;;;17.00;99.90;;;;;;5135983;27;20281;-51
2022/10/17 12:08:28;;;;;;;13.77;11.00;;;16.80;99.90;;;;;;5144304;27;20162;-52
2022/10/17 12:11:17;;;;;;;11.85;8.82;;;16.80;99.90;;;;;;5140985;27;20101;-52
2022/10/17 12:13:51;;;;;;;14.73;13.23;;;16.70;99.90;;;;;;5152514;27;20042;-50
2022/10/17 12:16:19;;;;;;;14.00;11.68;;;16.60;99.90;;;;;;5153661;27;20102;-50
2022/10/17 12:19:01;;;;;;;17.00;15.30;;;16.60;99.90;;;;;;5133861;27;20473;-51
2022/10/17 12:21:27;;;;;;;10.60;9.50;;;16.50;99.90;;;;;;5122048;27;20455;-49
2022/10/17 12:23:54;;;;;;;8.70;7.78;;;16.50;99.90;;;;;;5131234;27;20050;-51
2022/10/17 12:26:28;;;;;;;11.32;9.70;;;16.50;99.90;;;;;;5145960;27;20073;-54
2022/10/17 12:28:55;;;;;;;8.90;6.30;;;16.60;99.90;;;;;;5134195;27;20046;-53
2022/10/17 12:31:24;;;;;;;8.18;5.85;;;16.50;99.90;;;;;;5144102;27;20052;-49
2022/10/17 12:33:51;;;;;;;7.93;7.07;;;16.50;99.90;;;;;;5142657;27;20108;-50
2022/10/17 12:36:26;;;;;;;6.82;6.22;;;16.40;99.90;;;;;;5134509;27;20066;-53
2022/10/17 12:39:01;;;;;;;8.18;4.88;;;16.40;99.90;;;;;;5142056;27;20125;-52
2022/10/17 12:41:38;;;;;;;5.82;3.90;;;16.40;99.90;;;;;;5117660;27;20615;-53
2022/10/17 12:44:10;;;;;;;4.93;3.78;;;16.20;99.90;;;;;;5144799;27;20046;-49
2022/10/17 12:47:01;;;;;;;6.50;4.45;;;16.20;99.90;;;;;;5143770;27;20470;-51
2022/10/17 12:49:47;;;;;;;7.85;4.28;;;16.10;99.90;;;;;;5120246;27;20047;-49